Time;durP1;ratioP1;P1;durP2;ratioP2;P2;SDS_P1;SDS_P2;PMS_P1;PMS_P2;Temp;Humidity;BMP_temperature;BMP_pressure;BME280_temperature;BME280_humidity;BME280_pressure;Samples;Min_cycle;Max_cycle;Signal;HPM_P1;HPM_P2
2023/10/31 00:01:12;;;;;;;6.55;5.05;;;;;;;11.31;94.58;96811.25;5088923;28;20145;-82
2023/10/31 00:03:40;;;;;;;5.40;4.78;;;;;;;11.29;94.64;96813.44;5067576;28;20438;-82
2023/10/31 00:06:06;;;;;;;7.10;5.32;;;;;;;11.13;95.51;96812.97;5066408;28;20040;-82
2023/10/31 00:08:31;;;;;;;7.35;5.07;;;;;;;11.21;95.57;96811.47;5070401;28;20089;-82
2023/10/31 00:10:56;;;;;;;5.97;5.38;;;;;;;11.25;95.40;96810.56;5073302;28;20039;-82
2023/10/31 00:13:22;;;;;;;6.35;5.32;;;;;;;11.25;94.93;96799.06;5086607;28;20048;-83
2023/10/31 00:15:47;;;;;;;9.73;6.05;;;;;;;11.23;95.26;96798.59;5072740;28;20051;-82
2023/10/31 00:18:13;;;;;;;10.55;5.38;;;;;;;11.18;96.30;96799.50;5084814;28;20023;-82
2023/10/31 00:20:38;;;;;;;6.68;5.50;;;;;;;11.12;96.66;96802.56;5085426;28;20637;-81
2023/10/31 00:23:03;;;;;;;9.68;6.13;;;;;;;11.16;96.61;96809.69;5065312;28;20085;-82
2023/10/31 00:25:29;;;;;;;6.90;5.90;;;;;;;10.87;98.30;96809.28;5064379;28;20035;-82
2023/10/31 00:27:54;;;;;;;11.63;6.95;;;;;;;10.85;98.71;96803.47;5081116;28;20047;-82
2023/10/31 00:30:21;;;;;;;7.78;5.65;;;;;;;11.22;96.69;96816.50;5092064;28;21555;-82
2023/10/31 00:32:46;;;;;;;6.55;5.70;;;;;;;11.16;96.45;96822.28;5082898;28;20036;-82
2023/10/31 00:35:12;;;;;;;9.30;6.57;;;;;;;11.03;97.31;96809.75;5062453;28;20086;-82
2023/10/31 00:37:39;;;;;;;7.50;5.47;;;;;;;11.12;97.47;96823.94;5064586;28;20056;-81
2023/10/31 00:40:11;;;;;;;7.25;5.28;;;;;;;11.17;96.75;96813.16;5072357;28;20028;-82
2023/10/31 00:42:37;;;;;;;8.13;5.00;;;;;;;11.05;97.24;96804.91;5079884;28;20039;-82
2023/10/31 00:45:02;;;;;;;10.00;4.93;;;;;;;11.22;96.61;96807.72;5053467;28;20035;-82
2023/10/31 00:47:28;;;;;;;7.95;5.72;;;;;;;10.99;97.66;96808.75;5085520;28;20036;-81
2023/10/31 00:49:53;;;;;;;5.88;5.28;;;;;;;11.24;96.49;96822.34;5087105;28;20107;-82
2023/10/31 00:52:19;;;;;;;8.00;5.13;;;;;;;11.12;97.68;96802.56;5078213;28;20103;-81
2023/10/31 00:54:44;;;;;;;8.52;5.80;;;;;;;11.18;96.83;96801.41;5069498;28;20024;-82
2023/10/31 00:57:10;;;;;;;7.07;5.10;;;;;;;11.35;96.08;96793.50;5065778;28;20028;-82
2023/10/31 00:59:35;;;;;;;6.10;4.90;;;;;;;11.28;96.12;96790.47;5086655;28;20467;-82
2023/10/31 01:02:00;;;;;;;7.47;5.45;;;;;;;11.31;96.31;96781.88;5087744;28;20031;-82
2023/10/31 01:04:26;;;;;;;6.57;4.90;;;;;;;11.30;96.16;96782.94;5080122;28;20059;-82
2023/10/31 01:06:51;;;;;;;6.57;5.50;;;;;;;11.22;96.58;96773.78;5081671;28;20048;-82
2023/10/31 01:09:16;;;;;;;7.68;5.78;;;;;;;11.31;96.56;96784.53;5076344;28;20020;-82
2023/10/31 01:11:42;;;;;;;7.03;5.90;;;;;;;11.29;96.22;96773.38;5069676;28;20162;-82
2023/10/31 01:14:07;;;;;;;8.00;5.90;;;;;;;11.28;96.11;96761.09;5082674;28;20020;-82
2023/10/31 01:16:33;;;;;;;5.40;4.90;;;;;;;11.27;96.11;96757.63;5068000;28;20032;-81
2023/10/31 01:18:58;;;;;;;6.57;5.97;;;;;;;11.28;95.84;96761.09;5069642;28;20028;-81
2023/10/31 01:21:24;;;;;;;12.88;5.72;;;;;;;11.30;96.43;96765.03;5082352;28;20030;-82
2023/10/31 01:23:49;;;;;;;10.48;6.57;;;;;;;11.30;96.45;96773.06;5079748;28;20029;-81
2023/10/31 01:26:15;;;;;;;9.57;6.93;;;;;;;11.33;96.43;96764.41;5082175;28;20032;-81
2023/10/31 01:28:40;;;;;;;6.35;5.75;;;;;;;11.37;95.98;96767.28;5102231;28;20028;-82
2023/10/31 01:31:06;;;;;;;8.50;7.25;;;;;;;11.37;96.46;96772.63;5082750;28;20028;-82
2023/10/31 01:33:31;;;;;;;7.82;6.30;;;;;;;11.36;96.32;96767.59;5053449;28;20032;-82
2023/10/31 01:35:57;;;;;;;8.00;7.15;;;;;;;11.32;96.42;96759.38;5082853;28;20036;-82
2023/10/31 01:38:22;;;;;;;8.55;6.82;;;;;;;11.38;96.18;96768.84;5080699;28;20062;-82
2023/10/31 01:40:51;;;;;;;10.15;6.65;;;;;;;11.32;96.90;96762.06;5082905;28;20020;-82
2023/10/31 01:43:36;;;;;;;7.88;6.55;;;;;;;11.26;97.04;96745.38;5080905;28;20025;-81
2023/10/31 01:46:01;;;;;;;8.27;7.03;;;;;;;11.28;97.08;96750.41;5086377;28;20043;-82
2023/10/31 01:48:29;;;;;;;6.80;6.15;;;;;;;11.37;96.90;96759.28;5093614;28;20032;-82
2023/10/31 01:50:55;;;;;;;7.60;6.43;;;;;;;11.31;96.79;96739.91;5085629;28;20097;-82
2023/10/31 01:53:21;;;;;;;6.82;6.00;;;;;;;11.36;96.66;96747.00;5075987;28;20028;-82
2023/10/31 01:55:47;;;;;;;9.73;5.88;;;;;;;11.24;96.72;96733.41;5082510;28;20037;-82
2023/10/31 01:58:14;;;;;;;8.05;6.03;;;;;;;11.25;97.53;96721.63;5065656;28;20052;-81
2023/10/31 02:00:43;;;;;;;7.85;5.18;;;;;;;11.28;96.91;96721.84;5078834;28;20046;-82
2023/10/31 02:03:09;;;;;;;8.70;6.03;;;;;;;11.25;97.01;96721.63;5083323;28;20368;-82
2023/10/31 02:05:35;;;;;;;6.05;5.45;;;;;;;11.21;97.30;96737.50;5080842;28;20032;-82
2023/10/31 02:08:01;;;;;;;5.75;4.78;;;;;;;11.30;97.02;96740.22;5083038;28;20371;-82
2023/10/31 02:10:27;;;;;;;6.50;5.03;;;;;;;11.27;96.69;96727.47;5081325;28;20111;-81
2023/10/31 02:12:52;;;;;;;8.15;4.72;;;;;;;11.35;96.74;96731.28;5068683;28;20111;-82
2023/10/31 02:15:17;;;;;;;6.35;5.32;;;;;;;11.29;96.73;96717.28;5051515;28;20037;-82
2023/10/31 02:17:43;;;;;;;8.98;5.95;;;;;;;11.30;96.55;96719.66;5079524;28;20051;-82
2023/10/31 02:20:08;;;;;;;9.05;5.07;;;;;;;11.27;96.63;96724.78;5087414;28;20431;-81
2023/10/31 02:22:34;;;;;;;6.13;5.53;;;;;;;11.26;96.78;96712.53;5075628;28;20053;-82
2023/10/31 02:24:59;;;;;;;6.90;5.38;;;;;;;11.19;96.81;96709.50;5056517;28;20119;-82
2023/10/31 02:27:25;;;;;;;7.43;5.10;;;;;;;11.23;97.02;96724.63;5087012;28;20024;-81
2023/10/31 02:29:50;;;;;;;6.75;6.05;;;;;;;11.23;97.20;96732.63;5087207;28;20051;-83
2023/10/31 02:32:15;;;;;;;7.13;5.07;;;;;;;11.18;97.29;96719.38;5073901;28;20485;-82
2023/10/31 02:34:41;;;;;;;6.18;5.00;;;;;;;11.26;97.01;96731.25;5090313;28;20057;-82
2023/10/31 02:37:06;;;;;;;6.13;5.47;;;;;;;11.23;97.19;96719.28;5088513;28;20060;-82
2023/10/31 02:39:32;;;;;;;6.75;4.78;;;;;;;11.28;96.81;96734.38;5079250;28;20380;-82
2023/10/31 02:41:57;;;;;;;6.13;5.13;;;;;;;11.21;97.05;96734.03;5082583;28;20035;-82
2023/10/31 02:44:23;;;;;;;7.18;5.07;;;;;;;11.18;96.93;96730.06;5069869;28;20032;-82
2023/10/31 02:46:48;;;;;;;5.90;5.28;;;;;;;11.17;97.10;96741.84;5051165;28;20032;-81
2023/10/31 02:49:14;;;;;;;7.32;5.63;;;;;;;11.15;97.09;96757.41;5087585;28;20523;-82
2023/10/31 02:51:39;;;;;;;6.50;5.22;;;;;;;11.13;97.68;96774.81;5071819;28;20024;-82
2023/10/31 02:54:05;;;;;;;10.23;5.90;;;;;;;11.15;97.53;96777.97;5072854;28;20020;-82
2023/10/31 02:56:30;;;;;;;9.05;5.57;;;;;;;11.13;97.50;96764.13;5094192;28;20024;-81
2023/10/31 02:58:55;;;;;;;12.30;6.15;;;;;;;11.13;97.53;96759.59;5073664;28;20118;-82
2023/10/31 03:01:21;;;;;;;5.95;5.28;;;;;;;11.15;97.50;96759.28;5061995;28;20036;-82
2023/10/31 03:03:46;;;;;;;8.13;5.72;;;;;;;11.13;97.17;96772.13;5070379;28;20129;-81
2023/10/31 03:06:12;;;;;;;6.88;5.30;;;;;;;11.03;97.68;96767.03;5074611;28;20111;-82
2023/10/31 03:08:37;;;;;;;8.73;5.05;;;;;;;11.08;97.03;96758.91;5069742;28;20056;-83
2023/10/31 03:11:02;;;;;;;5.43;4.93;;;;;;;11.01;97.00;96771.88;5072155;28;20031;-81
2023/10/31 03:13:28;;;;;;;5.15;4.32;;;;;;;11.09;96.21;96787.97;5064914;28;20029;-82
2023/10/31 03:15:53;;;;;;;4.80;3.67;;;;;;;11.05;95.85;96783.53;5055135;28;20028;-81
2023/10/31 03:18:18;;;;;;;5.60;3.97;;;;;;;11.06;95.65;96809.13;5071349;28;20107;-82
2023/10/31 03:20:47;;;;;;;7.47;4.47;;;;;;;11.02;94.85;96800.16;5068852;28;20044;-82
2023/10/31 03:23:13;;;;;;;4.50;4.07;;;;;;;10.96;94.12;96798.69;5070112;28;20024;-82
2023/10/31 03:25:38;;;;;;;4.85;4.45;;;;;;;10.99;93.75;96803.41;5071917;28;20403;-82
2023/10/31 03:28:04;;;;;;;5.97;4.03;;;;;;;10.91;93.97;96812.94;5089384;28;20042;-82
2023/10/31 03:30:29;;;;;;;3.58;3.28;;;;;;;10.88;93.34;96816.19;5079101;28;20082;-82
2023/10/31 03:32:54;;;;;;;3.75;3.38;;;;;;;10.96;92.64;96820.03;5088021;28;20043;-81
2023/10/31 03:35:20;;;;;;;3.90;2.65;;;;;;;10.85;91.52;96824.81;5085984;28;20512;-82
2023/10/31 03:37:45;;;;;;;2.97;2.78;;;;;;;10.76;91.04;96823.13;5088746;28;20064;-82
2023/10/31 03:40:11;;;;;;;2.55;2.35;;;;;;;10.83;91.24;96850.22;5067441;28;20033;-82
2023/10/31 03:42:36;;;;;;;2.40;2.20;;;;;;;10.80;90.49;96854.25;5063738;28;20040;-82
2023/10/31 03:45:02;;;;;;;2.58;1.90;;;;;;;10.78;89.03;96844.97;5065617;28;20032;-82
2023/10/31 03:47:27;;;;;;;2.53;2.38;;;;;;;10.79;87.98;96855.34;5082635;28;20040;-82
2023/10/31 03:49:53;;;;;;;2.00;1.90;;;;;;;10.77;88.64;96865.53;5087559;28;20115;-82
2023/10/31 03:52:19;;;;;;;2.13;2.03;;;;;;;10.73;88.38;96874.41;5080378;28;20123;-82
2023/10/31 03:54:45;;;;;;;4.53;2.10;;;;;;;10.79;88.56;96883.94;5084494;28;20036;-82
2023/10/31 03:57:10;;;;;;;2.33;2.13;;;;;;;10.77;88.81;96870.84;5082949;28;20430;-82
2023/10/31 03:59:37;;;;;;;2.92;2.38;;;;;;;10.83;89.15;96876.91;5088561;28;20118;-82
2023/10/31 04:02:03;;;;;;;2.83;2.63;;;;;;;10.70;89.13;96894.50;5089414;28;20058;-82
2023/10/31 04:04:28;;;;;;;2.60;2.40;;;;;;;10.62;88.08;96892.50;5083864;28;20637;-82
2023/10/31 04:06:54;;;;;;;3.08;2.78;;;;;;;10.52;87.63;96885.50;5062390;28;20032;-81
2023/10/31 04:09:19;;;;;;;3.63;2.65;;;;;;;10.63;87.19;96891.44;5081491;28;20074;-82
2023/10/31 04:11:45;;;;;;;2.83;2.60;;;;;;;10.69;87.47;96892.09;5070508;28;20434;-82
2023/10/31 04:14:10;;;;;;;2.65;2.45;;;;;;;10.55;87.60;96892.91;5078440;28;20500;-81
2023/10/31 04:16:40;;;;;;;2.75;2.55;;;;;;;10.65;88.08;96883.91;5066927;28;20118;-82
2023/10/31 04:19:05;;;;;;;3.08;2.88;;;;;;;10.55;87.89;96886.75;5068580;28;20385;-82
2023/10/31 04:21:31;;;;;;;2.75;2.55;;;;;;;10.59;88.21;96879.78;5066893;28;20031;-82
2023/10/31 04:23:56;;;;;;;5.63;2.63;;;;;;;10.69;88.09;96884.91;5084751;28;20036;-82
2023/10/31 04:26:21;;;;;;;3.72;3.42;;;;;;;10.68;87.91;96885.97;5089632;28;20387;-82
2023/10/31 04:28:47;;;;;;;3.22;2.92;;;;;;;10.70;87.74;96901.72;5081817;28;20479;-82
2023/10/31 04:31:12;;;;;;;3.40;3.20;;;;;;;10.67;87.56;96905.75;5083244;28;20052;-82
2023/10/31 04:33:37;;;;;;;3.97;3.00;;;;;;;10.62;87.68;96902.38;5081586;28;20057;-82
2023/10/31 04:36:03;;;;;;;5.47;3.70;;;;;;;10.72;87.74;96908.34;5067121;28;20036;-82
2023/10/31 04:38:29;;;;;;;4.15;3.75;;;;;;;10.69;87.65;96918.78;5078766;28;20043;-81
2023/10/31 04:40:54;;;;;;;3.60;3.30;;;;;;;10.72;87.84;96918.22;5049492;28;20395;-82
2023/10/31 04:43:19;;;;;;;3.47;3.17;;;;;;;10.64;88.10;96926.91;5084206;28;20704;-81
2023/10/31 04:45:45;;;;;;;3.60;3.30;;;;;;;10.57;88.09;96918.50;5066515;28;20036;-82
2023/10/31 04:48:10;;;;;;;5.40;3.20;;;;;;;10.64;88.33;96918.91;5088527;28;20032;-82
2023/10/31 04:50:35;;;;;;;4.60;2.95;;;;;;;10.61;88.01;96943.50;5066403;28;20024;-82
2023/10/31 04:53:01;;;;;;;3.25;2.53;;;;;;;10.53;87.38;96921.75;5049023;28;20024;-82
2023/10/31 04:55:26;;;;;;;3.03;2.70;;;;;;;10.61;87.76;96956.84;5083554;28;20046;-82
2023/10/31 04:57:51;;;;;;;3.08;2.78;;;;;;;10.39;87.08;96931.63;5086159;28;20040;-82
2023/10/31 05:00:17;;;;;;;2.50;2.30;;;;;;;10.53;87.51;96956.41;5067834;28;20036;-82
2023/10/31 05:02:42;;;;;;;3.72;2.25;;;;;;;10.49;86.72;96952.75;5082712;28;20040;-82
2023/10/31 05:05:08;;;;;;;3.28;2.60;;;;;;;10.57;86.70;96943.31;5071475;28;20038;-83
2023/10/31 05:07:33;;;;;;;2.10;1.90;;;;;;;10.58;86.62;96955.53;5055691;28;20035;-81
2023/10/31 05:09:59;;;;;;;2.25;2.05;;;;;;;10.55;86.93;96964.13;5077884;28;20082;-82
2023/10/31 05:12:25;;;;;;;2.42;2.22;;;;;;;10.53;86.58;96953.75;5086230;28;20392;-82
2023/10/31 05:14:50;;;;;;;2.55;2.35;;;;;;;10.60;87.29;96958.69;5079460;28;20040;-82
2023/10/31 05:17:15;;;;;;;2.42;2.22;;;;;;;10.62;86.75;96969.88;5084654;28;20033;-82
2023/10/31 05:19:41;;;;;;;2.78;2.53;;;;;;;10.59;86.68;96967.81;5065152;28;20106;-82
2023/10/31 05:22:06;;;;;;;2.00;1.90;;;;;;;10.42;86.33;96960.34;5088362;28;20479;-82
2023/10/31 05:24:32;;;;;;;2.10;1.90;;;;;;;10.54;86.34;96958.00;5080492;28;20115;-82
2023/10/31 05:26:58;;;;;;;2.03;1.92;;;;;;;10.54;85.84;96960.69;5071406;28;20040;-82
2023/10/31 05:29:23;;;;;;;2.92;2.08;;;;;;;10.51;86.25;96963.94;5063349;28;20119;-82
2023/10/31 05:31:48;;;;;;;2.83;2.30;;;;;;;10.53;85.94;96971.63;5081211;28;20028;-82
2023/10/31 05:34:14;;;;;;;3.00;1.98;;;;;;;10.55;86.42;96956.13;5071739;28;20124;-82
2023/10/31 05:36:39;;;;;;;2.72;1.77;;;;;;;10.61;85.88;96964.84;5069307;28;20422;-82
2023/10/31 05:39:05;;;;;;;2.20;2.03;;;;;;;10.64;85.49;96961.59;5083394;28;20050;-82
2023/10/31 05:41:31;;;;;;;2.15;2.05;;;;;;;10.64;85.67;96966.94;5071936;28;20031;-83
2023/10/31 05:43:56;;;;;;;2.85;2.65;;;;;;;10.53;86.73;96969.75;5059949;28;20032;-82
2023/10/31 05:46:22;;;;;;;2.78;2.17;;;;;;;10.48;86.38;96972.50;5069649;28;20070;-82
2023/10/31 05:48:48;;;;;;;2.90;2.53;;;;;;;10.44;86.50;96965.41;5081644;28;20032;-82
2023/10/31 05:51:15;;;;;;;2.65;2.45;;;;;;;10.52;86.43;96981.53;5079280;28;20024;-82
2023/10/31 05:53:43;;;;;;;2.30;2.20;;;;;;;10.49;86.21;96992.78;5082275;28;20024;-83
2023/10/31 05:56:09;;;;;;;2.53;2.33;;;;;;;10.45;85.77;96981.09;5071252;28;20074;-82
2023/10/31 05:58:36;;;;;;;8.02;3.67;;;;;;;10.47;86.20;96984.28;5085067;28;20128;-82
2023/10/31 06:01:02;;;;;;;2.95;2.58;;;;;;;10.58;85.50;96984.88;5088203;28;20027;-82
2023/10/31 06:03:27;;;;;;;3.03;2.60;;;;;;;10.48;85.45;96985.06;5071342;28;20039;-82
2023/10/31 06:05:52;;;;;;;3.67;2.33;;;;;;;10.46;85.86;96987.25;5089256;28;20118;-82
2023/10/31 06:08:18;;;;;;;3.55;2.72;;;;;;;10.41;85.92;96992.66;5084666;28;20024;-82
2023/10/31 06:10:43;;;;;;;2.22;2.03;;;;;;;10.42;86.05;96988.88;5074960;28;20071;-81
2023/10/31 06:13:09;;;;;;;3.40;3.10;;;;;;;10.39;86.54;96994.81;5084951;28;20906;-82
2023/10/31 06:15:34;;;;;;;4.50;2.92;;;;;;;10.40;86.54;97012.38;5052745;28;20111;-82
2023/10/31 06:17:59;;;;;;;2.53;2.33;;;;;;;10.44;86.30;97000.09;5075498;28;20151;-82
2023/10/31 06:20:25;;;;;;;3.33;2.63;;;;;;;10.39;86.37;97011.63;5088602;28;20089;-82
2023/10/31 06:22:50;;;;;;;2.67;2.40;;;;;;;10.35;87.06;97012.50;5085126;28;20151;-82
2023/10/31 06:25:15;;;;;;;4.22;2.92;;;;;;;10.37;86.44;97008.47;5078005;28;20029;-82
2023/10/31 06:27:40;;;;;;;5.55;3.22;;;;;;;10.43;86.38;97009.94;5053770;28;20024;-82
2023/10/31 06:30:06;;;;;;;3.15;2.85;;;;;;;10.26;86.62;96998.25;5087573;28;20052;-82
2023/10/31 06:32:32;;;;;;;2.80;2.60;;;;;;;10.34;86.47;97001.03;5083869;28;20023;-82
2023/10/31 06:34:57;;;;;;;3.33;2.75;;;;;;;10.34;86.59;97006.38;5072587;28;20426;-82
2023/10/31 06:37:23;;;;;;;3.58;2.70;;;;;;;10.16;86.59;97004.50;5084145;28;20032;-82
2023/10/31 06:39:48;;;;;;;6.28;2.88;;;;;;;10.32;86.41;97027.19;5073386;28;20429;-82
2023/10/31 06:42:13;;;;;;;3.13;2.83;;;;;;;10.32;86.21;97019.19;5072971;28;20040;-82
2023/10/31 06:44:39;;;;;;;2.80;2.60;;;;;;;10.25;86.30;97015.31;5070942;28;20158;-82
2023/10/31 06:47:04;;;;;;;4.80;3.33;;;;;;;10.20;86.79;97024.16;5083100;28;20471;-81
2023/10/31 06:49:30;;;;;;;4.35;3.08;;;;;;;10.28;86.27;97026.19;5081531;28;20036;-82
2023/10/31 06:51:55;;;;;;;3.20;2.80;;;;;;;10.21;86.32;97011.63;5081748;28;20028;-82
2023/10/31 06:54:21;;;;;;;2.97;2.60;;;;;;;10.29;85.84;97034.97;5058478;28;20036;-81
2023/10/31 06:56:47;;;;;;;4.30;2.85;;;;;;;10.25;85.78;97012.63;5073444;28;20029;-83
2023/10/31 06:59:12;;;;;;;2.80;2.60;;;;;;;10.23;85.84;97012.94;5083514;28;20027;-81
2023/10/31 07:01:38;;;;;;;5.53;2.63;;;;;;;10.33;85.91;97026.09;5085883;28;20677;-82
2023/10/31 07:04:03;;;;;;;4.10;2.10;;;;;;;10.36;85.13;97014.84;5079321;28;20072;-82
2023/10/31 07:06:29;;;;;;;5.85;3.83;;;;;;;10.24;85.65;97027.06;5084324;28;20035;-82
2023/10/31 07:08:54;;;;;;;4.90;2.78;;;;;;;10.33;86.00;97010.09;5069160;28;20059;-82
2023/10/31 07:11:19;;;;;;;5.00;2.95;;;;;;;10.25;85.91;97007.31;5067295;28;20082;-82
2023/10/31 07:13:45;;;;;;;2.95;2.33;;;;;;;10.34;85.68;97018.91;5067522;28;20123;-82
2023/10/31 07:16:10;;;;;;;3.40;2.72;;;;;;;10.32;85.92;97007.72;5082546;28;20028;-82
2023/10/31 07:18:36;;;;;;;2.10;1.90;;;;;;;10.33;85.75;97036.75;5068128;28;20024;-81
2023/10/31 07:21:01;;;;;;;2.45;2.25;;;;;;;10.15;86.11;97026.94;5064023;28;20032;-82
2023/10/31 07:23:27;;;;;;;3.30;2.00;;;;;;;10.24;86.40;97027.84;5082372;28;20032;-82
2023/10/31 07:25:52;;;;;;;2.22;2.03;;;;;;;10.27;86.02;97032.59;5084997;28;20059;-82
2023/10/31 07:28:18;;;;;;;3.40;2.10;;;;;;;10.28;85.83;97033.41;5085412;28;20027;-82
2023/10/31 07:30:43;;;;;;;3.85;2.17;;;;;;;10.25;86.13;97025.97;5092873;28;20052;-82
2023/10/31 07:33:09;;;;;;;3.55;2.10;;;;;;;10.30;85.69;97034.69;5091282;28;20062;-82
2023/10/31 07:35:34;;;;;;;2.25;2.05;;;;;;;10.24;85.74;97022.50;5063804;28;20043;-82
2023/10/31 07:37:59;;;;;;;5.50;2.03;;;;;;;10.20;86.23;97036.72;5069565;28;20028;-82
2023/10/31 07:40:25;;;;;;;4.40;1.98;;;;;;;10.31;85.57;97051.50;5061613;28;20039;-81
2023/10/31 07:42:50;;;;;;;1.90;1.73;;;;;;;10.23;85.90;97031.59;5071038;28;20163;-81
2023/10/31 07:45:16;;;;;;;3.45;1.92;;;;;;;10.22;86.39;97051.34;5064354;28;20052;-81
2023/10/31 07:47:41;;;;;;;1.77;1.65;;;;;;;10.23;85.87;97055.59;5061899;28;20036;-81
2023/10/31 07:50:07;;;;;;;6.75;1.90;;;;;;;10.29;85.94;97050.97;5076715;28;20573;-81
2023/10/31 07:52:32;;;;;;;3.80;1.85;;;;;;;10.19;86.39;97045.81;5074038;28;20453;-81
2023/10/31 07:54:57;;;;;;;2.40;1.88;;;;;;;10.28;86.47;97066.19;5070097;28;20430;-82
2023/10/31 07:57:23;;;;;;;3.90;1.35;;;;;;;10.23;86.88;97068.94;5072966;28;20078;-82
2023/10/31 07:59:48;;;;;;;3.33;1.67;;;;;;;10.27;86.94;97055.78;5083423;28;20085;-81
2023/10/31 08:02:13;;;;;;;3.28;1.70;;;;;;;10.24;86.77;97075.81;5081744;28;20038;-81
2023/10/31 08:04:39;;;;;;;1.67;1.58;;;;;;;10.30;86.66;97077.34;5085576;28;20056;-81
2023/10/31 08:07:04;;;;;;;3.97;1.77;;;;;;;10.33;87.17;97079.44;5082187;28;20487;-81
2023/10/31 08:09:30;;;;;;;3.83;1.70;;;;;;;10.23;87.33;97070.78;5064598;28;20039;-81
2023/10/31 08:11:55;;;;;;;1.90;1.35;;;;;;;10.27;87.64;97080.59;5070433;28;20521;-81
2023/10/31 08:14:22;;;;;;;5.30;1.60;;;;;;;10.30;88.21;97080.03;5071645;28;20166;-81
2023/10/31 08:16:47;;;;;;;2.40;1.73;;;;;;;10.34;87.74;97082.91;5084178;28;20473;-81
2023/10/31 08:19:14;;;;;;;4.25;2.72;;;;;;;10.27;87.82;97079.78;5080513;28;20039;-84
2023/10/31 08:21:39;;;;;;;6.65;4.95;;;;;;;10.20;88.25;97069.50;5082025;28;20024;-80
2023/10/31 08:24:05;;;;;;;6.35;4.18;;;;;;;10.28;88.05;97076.84;5065164;28;20518;-81
2023/10/31 08:26:32;;;;;;;7.78;6.97;;;;;;;10.13;88.54;97071.75;5081424;28;20043;-81
2023/10/31 08:28:58;;;;;;;7.75;7.00;;;;;;;10.18;88.63;97077.00;5075938;28;20090;-81
2023/10/31 08:31:23;;;;;;;12.40;10.13;;;;;;;10.32;87.99;97083.19;5076112;28;20118;-82
2023/10/31 08:33:49;;;;;;;12.52;8.60;;;;;;;10.43;88.04;97110.50;5084465;28;20024;-82
2023/10/31 08:36:14;;;;;;;6.60;5.63;;;;;;;10.37;88.06;97111.66;5073763;28;20037;-81
2023/10/31 08:38:39;;;;;;;5.15;4.40;;;;;;;10.32;88.55;97123.19;5084398;28;20131;-81
2023/10/31 08:41:05;;;;;;;6.10;4.38;;;;;;;10.44;88.15;97126.19;5063154;28;20032;-81
2023/10/31 08:43:30;;;;;;;4.63;3.63;;;;;;;10.35;88.04;97130.59;5072320;28;20036;-81
2023/10/31 08:45:56;;;;;;;2.97;2.40;;;;;;;10.41;87.95;97144.66;5077997;28;20043;-81
2023/10/31 08:48:21;;;;;;;3.05;2.53;;;;;;;10.45;88.58;97151.00;5062459;28;20029;-81
2023/10/31 08:50:47;;;;;;;2.55;2.05;;;;;;;10.32;88.33;97159.72;5067510;28;20106;-81
2023/10/31 08:53:12;;;;;;;2.38;2.17;;;;;;;10.30;89.00;97154.69;5064578;28;20063;-81
2023/10/31 08:55:37;;;;;;;5.68;1.88;;;;;;;10.15;89.44;97160.22;5066331;28;20120;-80
2023/10/31 08:58:03;;;;;;;2.50;2.30;;;;;;;10.17;89.68;97155.41;5042029;28;20031;-81
2023/10/31 09:00:28;;;;;;;2.88;1.63;;;;;;;10.11;89.33;97163.75;5073312;28;20086;-81
2023/10/31 09:02:54;;;;;;;1.70;1.60;;;;;;;10.15;88.77;97160.22;5045299;28;20052;-80
2023/10/31 09:05:20;;;;;;;1.77;1.67;;;;;;;10.09;88.75;97163.22;5070515;28;20040;-80
2023/10/31 09:07:46;;;;;;;1.67;1.58;;;;;;;10.06;88.39;97180.56;5071927;28;20060;-80
2023/10/31 09:10:12;;;;;;;2.65;1.60;;;;;;;10.00;87.87;97164.91;5071948;28;20054;-81
2023/10/31 09:12:37;;;;;;;2.00;1.85;;;;;;;10.04;88.83;97187.25;5073547;28;20506;-80
2023/10/31 09:15:03;;;;;;;3.63;1.92;;;;;;;10.02;88.14;97194.75;5070273;28;20074;-80
2023/10/31 09:17:28;;;;;;;3.60;2.60;;;;;;;10.15;88.05;97215.41;5076023;28;20498;-79
2023/10/31 09:19:54;;;;;;;6.55;2.75;;;;;;;10.02;87.70;97218.75;5071746;28;20028;-81
2023/10/31 09:22:19;;;;;;;3.75;2.22;;;;;;;10.02;87.65;97218.75;5042988;28;20028;-80
2023/10/31 09:24:45;;;;;;;2.30;2.00;;;;;;;10.12;86.30;97237.31;5075566;28;20032;-80
2023/10/31 09:27:10;;;;;;;1.75;1.60;;;;;;;10.10;87.31;97228.75;5081488;28;20047;-80
2023/10/31 09:29:36;;;;;;;2.72;2.53;;;;;;;10.13;87.48;97231.69;5073729;28;20036;-80
2023/10/31 09:32:01;;;;;;;8.38;2.47;;;;;;;10.11;87.16;97227.72;5071852;28;20085;-80
2023/10/31 09:34:26;;;;;;;7.25;5.28;;;;;;;10.17;86.48;97251.38;5078740;28;20058;-80
2023/10/31 09:36:52;;;;;;;7.95;6.05;;;;;;;10.21;87.09;97264.94;5076460;28;20633;-81
2023/10/31 09:39:17;;;;;;;6.15;5.55;;;;;;;10.15;87.75;97266.88;5076701;28;20043;-80
2023/10/31 09:41:43;;;;;;;4.40;4.10;;;;;;;10.10;87.07;97264.22;5077383;28;20119;-80
2023/10/31 09:44:08;;;;;;;4.65;3.28;;;;;;;10.18;87.38;97282.28;5053092;28;20119;-80
2023/10/31 09:46:34;;;;;;;3.28;2.97;;;;;;;9.97;86.99;97278.22;5051195;28;20044;-80
2023/10/31 09:49:00;;;;;;;2.45;2.28;;;;;;;10.16;86.95;97287.09;5082328;28;20039;-81
2023/10/31 09:51:27;;;;;;;4.03;2.70;;;;;;;10.14;86.58;97299.13;5083992;28;20119;-80
2023/10/31 09:53:55;;;;;;;7.80;4.32;;;;;;;10.27;87.05;97291.25;5082281;28;20035;-81
2023/10/31 09:56:22;;;;;;;4.18;3.25;;;;;;;10.29;86.50;97293.63;5072998;28;20122;-81
2023/10/31 09:58:48;;;;;;;3.65;2.90;;;;;;;10.29;86.90;97313.09;5093983;28;20024;-80
2023/10/31 10:01:14;;;;;;;3.25;2.92;;;;;;;10.24;86.10;97277.69;5088928;28;20024;-80
2023/10/31 10:03:40;;;;;;;2.67;2.47;;;;;;;10.44;86.18;97304.13;5084030;28;20479;-81
2023/10/31 10:06:06;;;;;;;3.67;2.70;;;;;;;10.45;85.73;97311.84;5081722;28;20034;-81
2023/10/31 10:08:32;;;;;;;3.97;2.72;;;;;;;10.45;85.93;97316.38;5081306;28;20020;-81
2023/10/31 10:10:57;;;;;;;3.03;2.72;;;;;;;10.40;85.30;97317.22;5087089;28;20551;-80
2023/10/31 10:13:23;;;;;;;4.00;3.10;;;;;;;10.37;85.58;97312.47;5072870;28;20024;-81
2023/10/31 10:15:51;;;;;;;3.15;2.50;;;;;;;10.33;85.40;97324.00;5084361;28;20387;-81
2023/10/31 10:18:29;;;;;;;2.53;2.33;;;;;;;10.44;85.68;97322.81;5085322;28;20416;-81
2023/10/31 10:20:58;;;;;;;5.75;3.05;;;;;;;10.48;85.52;97321.94;5091560;28;20027;-81
2023/10/31 10:23:25;;;;;;;3.50;3.00;;;;;;;10.54;85.25;97322.69;5087530;28;20028;-81
2023/10/31 10:25:50;;;;;;;2.47;2.35;;;;;;;10.52;84.99;97312.31;5085603;28;20416;-81
2023/10/31 10:28:16;;;;;;;4.25;2.78;;;;;;;10.57;84.64;97318.66;5088118;28;20032;-82
2023/10/31 10:30:41;;;;;;;2.70;2.50;;;;;;;10.59;84.33;97317.28;5087346;28;20438;-81
2023/10/31 10:33:07;;;;;;;4.43;2.40;;;;;;;10.62;84.84;97323.91;5084965;28;20016;-82
2023/10/31 10:35:34;;;;;;;2.90;2.45;;;;;;;10.63;84.31;97325.50;5075399;28;20714;-81
2023/10/31 10:38:00;;;;;;;4.32;2.75;;;;;;;10.64;84.82;97319.09;5079347;28;20537;-82
2023/10/31 10:40:26;;;;;;;2.33;2.13;;;;;;;10.66;84.45;97325.72;5073954;28;20034;-82
2023/10/31 10:42:56;;;;;;;2.28;2.08;;;;;;;10.68;84.20;97320.88;5074708;28;20487;-82
2023/10/31 10:45:24;;;;;;;2.83;2.63;;;;;;;10.71;83.69;97331.00;5068343;28;20032;-82
2023/10/31 10:47:50;;;;;;;5.13;2.38;;;;;;;10.67;83.54;97332.66;5074604;28;20020;-80
2023/10/31 10:50:20;;;;;;;2.95;2.58;;;;;;;10.63;83.75;97341.50;5094225;28;20020;-80
2023/10/31 10:52:56;;;;;;;3.50;2.70;;;;;;;10.53;83.92;97332.53;5076366;28;20128;-80
2023/10/31 10:55:25;;;;;;;3.05;2.50;;;;;;;10.68;84.05;97338.78;5081801;28;20082;-80
2023/10/31 10:58:05;;;;;;;3.70;3.20;;;;;;;10.72;83.88;97345.94;5078757;28;20119;-80
2023/10/31 11:00:31;;;;;;;6.60;3.28;;;;;;;10.67;83.97;97342.53;5084330;28;20027;-80
2023/10/31 11:02:57;;;;;;;6.63;3.97;;;;;;;10.69;83.64;97330.50;5084252;28;20031;-80
2023/10/31 11:05:26;;;;;;;5.10;4.03;;;;;;;10.74;83.75;97340.31;5082914;28;20028;-80
2023/10/31 11:07:52;;;;;;;4.13;3.45;;;;;;;10.74;84.36;97340.31;5060308;28;20502;-81
2023/10/31 11:10:18;;;;;;;4.60;4.20;;;;;;;10.76;84.43;97346.97;5082512;28;20035;-81
2023/10/31 11:12:44;;;;;;;5.13;4.65;;;;;;;10.77;84.16;97353.09;5083924;28;20031;-81
2023/10/31 11:15:14;;;;;;;7.72;3.95;;;;;;;10.69;84.32;97343.84;5084671;28;20109;-80
2023/10/31 11:17:41;;;;;;;5.50;3.85;;;;;;;10.62;84.15;97335.38;5072115;28;20048;-81
2023/10/31 11:20:09;;;;;;;4.70;4.30;;;;;;;10.57;85.14;97353.31;5080351;28;20036;-80
2023/10/31 11:22:39;;;;;;;8.55;4.13;;;;;;;10.65;85.18;97342.81;5076102;28;20567;-80
2023/10/31 11:25:07;;;;;;;4.82;4.32;;;;;;;10.67;84.92;97326.50;5071335;28;20476;-80
2023/10/31 11:27:35;;;;;;;3.95;3.63;;;;;;;10.53;85.58;97327.22;5086138;28;20039;-81